Time;durP1;ratioP1;P1;durP2;ratioP2;P2;SDS_P1;SDS_P2;PMS_P1;PMS_P2;Temp;Humidity;BMP_temperature;BMP_pressure;BME280_temperature;BME280_humidity;BME280_pressure;Samples;Min_cycle;Max_cycle;Signal;HPM_P1;HPM_P2
2021/04/18 00:01:05;;;;;;;;;;;;;;;-139.48;100.00;61774.03;5035009;28;20320;-67
2021/04/18 00:03:49;;;;;;;;;;;;;;;-139.48;100.00;61774.03;5034748;28;20015;-67
2021/04/18 00:06:34;;;;;;;;;;;;;;;-139.48;100.00;61774.03;5034511;28;20359;-67
2021/04/18 00:09:18;;;;;;;;;;;;;;;-139.48;100.00;61774.03;5033906;28;20376;-67
2021/04/18 00:12:01;;;;;;;;;;;;;;;-139.48;100.00;61774.03;5033844;28;19927;-67
2021/04/18 00:14:45;;;;;;;;;;;;;;;-139.48;100.00;61774.03;5034775;28;20023;-67
2021/04/18 00:17:29;;;;;;;;;;;;;;;-139.48;100.00;61774.03;5071858;22;19943;-69
2021/04/18 00:20:13;;;;;;;;;;;;;;;-139.48;100.00;61774.03;5074608;28;20028;-69
2021/04/18 00:22:57;;;;;;;;;;;;;;;-139.48;100.00;61774.03;5059207;28;20403;-69
2021/04/18 00:25:41;;;;;;;;;;;;;;;-139.48;100.00;61774.03;5074576;28;19923;-68
2021/04/18 00:28:25;;;;;;;;;;;;;;;-139.48;100.00;61774.03;5074072;28;19934;-69
2021/04/18 00:31:09;;;;;;;;;;;;;;;-139.48;100.00;61774.03;5074200;28;19919;-69
2021/04/18 00:33:52;;;;;;;;;;;;;;;-139.48;100.00;61774.03;5045101;28;19919;-69
2021/04/18 00:36:36;;;;;;;;;;;;;;;-139.48;100.00;61774.03;5074225;28;19919;-69
2021/04/18 00:39:20;;;;;;;;;;;;;;;-139.48;100.00;61774.03;5058807;28;19919;-69
2021/04/18 00:42:04;;;;;;;;;;;;;;;-139.48;100.00;61774.03;5073945;28;20285;-68
2021/04/18 00:44:48;;;;;;;;;;;;;;;-139.48;100.00;61774.03;5058698;28;19919;-69
2021/04/18 00:47:32;;;;;;;;;;;;;;;-139.48;100.00;61774.03;5044705;28;19919;-69
2021/04/18 00:50:36;;;;;;;;;;;;;;;-139.48;100.00;61774.03;5073836;28;19961;-69
2021/04/18 00:53:20;;;;;;;;;;;;;;;-139.48;100.00;61774.03;5073583;28;20014;-69
2021/04/18 00:56:04;;;;;;;;;;;;;;;-139.48;100.00;61774.03;5058875;28;19919;-69
2021/04/18 00:58:48;;;;;;;;;;;;;;;-139.48;100.00;61774.03;5073651;28;20004;-69
2021/04/18 01:01:32;;;;;;;;;;;;;;;-139.48;100.00;61774.03;5058800;28;20396;-69
2021/04/18 01:04:16;;;;;;;;;;;;;;;-139.48;100.00;61774.03;5073636;28;20387;-69
2021/04/18 01:07:00;;;;;;;;;;;;;;;-139.48;100.00;61774.03;5058327;28;20025;-69
2021/04/18 01:09:43;;;;;;;;;;;;;;;-139.48;100.00;61774.03;5044774;28;19929;-69
2021/04/18 01:12:27;;;;;;;;;;;;;;;-139.48;100.00;61774.03;5058665;28;19969;-69
2021/04/18 01:15:12;;;;;;;;;;;;;;;-139.48;100.00;61774.03;5058605;28;19961;-70
2021/04/18 01:17:56;;;;;;;;;;;;;;;-139.48;100.00;61774.03;5073349;28;20307;-69
2021/04/18 01:20:40;;;;;;;;;;;;;;;-139.48;100.00;61774.03;5058532;28;19919;-69
2021/04/18 01:23:23;;;;;;;;;;;;;;;-139.48;100.00;61774.03;5073746;28;19954;-69
2021/04/18 01:26:07;;;;;;;;;;;;;;;-139.48;100.00;61774.03;5073650;28;20021;-69
2021/04/18 01:28:51;;;;;;;;;;;;;;;-139.48;100.00;61774.03;5073372;28;19920;-68
2021/04/18 01:31:35;;;;;;;;;;;;;;;-139.48;100.00;61774.03;5058530;28;20057;-69
2021/04/18 01:34:19;;;;;;;;;;;;;;;-139.48;100.00;61774.03;5058084;28;20296;-69
2021/04/18 01:37:03;;;;;;;;;;;;;;;-139.48;100.00;61774.03;5058387;28;19919;-69
2021/04/18 01:39:50;;;;;;;;;;;;;;;-139.48;100.00;61774.03;5073610;28;20076;-69
2021/04/18 01:42:34;;;;;;;;;;;;;;;-139.48;100.00;61774.03;5044763;28;19919;-69
2021/04/18 01:45:18;;;;;;;;;;;;;;;-139.48;100.00;61774.03;5073463;28;19927;-69
2021/04/18 01:48:02;;;;;;;;;;;;;;;-139.48;100.00;61774.03;5073148;28;19955;-67
2021/04/18 01:50:47;;;;;;;;;;;;;;;-139.48;100.00;61774.03;5058017;28;19962;-68
2021/04/18 01:53:31;;;;;;;;;;;;;;;-139.48;100.00;61774.03;5058000;28;19958;-68
2021/04/18 01:56:15;;;;;;;;;;;;;;;-139.48;100.00;61774.03;5073439;28;20269;-66
2021/04/18 01:58:59;;;;;;;;;;;;;;;-139.48;100.00;61774.03;5073376;28;19919;-68
2021/04/18 02:01:42;;;;;;;;;;;;;;;-139.48;100.00;61774.03;5058180;28;19919;-68
2021/04/18 02:04:26;;;;;;;;;;;;;;;-139.48;100.00;61774.03;5073355;28;20069;-68
2021/04/18 02:07:10;;;;;;;;;;;;;;;-139.48;100.00;61774.03;5076096;28;19923;-68
2021/04/18 02:09:54;;;;;;;;;;;;;;;-139.48;100.00;61774.03;5061618;28;20299;-68
2021/04/18 02:12:38;;;;;;;;;;;;;;;-139.48;100.00;61774.03;5061854;28;20010;-67
2021/04/18 02:15:22;;;;;;;;;;;;;;;-139.48;100.00;61774.03;5061849;28;20016;-68
2021/04/18 02:18:06;;;;;;;;;;;;;;;-139.48;100.00;61774.03;5061305;28;19919;-68
2021/04/18 02:20:50;;;;;;;;;;;;;;;-139.48;100.00;61774.03;5076844;28;20018;-68
2021/04/18 02:23:33;;;;;;;;;;;;;;;-139.48;100.00;61774.03;5047544;28;20001;-68
2021/04/18 02:26:17;;;;;;;;;;;;;;;-139.48;100.00;61774.03;5061553;28;19927;-68
2021/04/18 02:29:01;;;;;;;;;;;;;;;-139.48;100.00;61774.03;5061278;28;19962;-69
2021/04/18 02:31:45;;;;;;;;;;;;;;;-139.48;100.00;61774.03;5061398;28;19954;-68
2021/04/18 02:34:29;;;;;;;;;;;;;;;-139.48;100.00;61774.03;5061514;28;19958;-69
2021/04/18 02:37:13;;;;;;;;;;;;;;;-139.48;100.00;61774.03;5076531;28;19918;-69
2021/04/18 02:39:57;;;;;;;;;;;;;;;-139.48;100.00;61774.03;5047001;28;19995;-69
2021/04/18 02:42:41;;;;;;;;;;;;;;;-139.48;100.00;61774.03;5047232;28;19919;-69
2021/04/18 02:45:24;;;;;;;;;;;;;;;-139.48;100.00;61774.03;5076087;28;20054;-69
2021/04/18 02:48:08;;;;;;;;;;;;;;;-139.48;100.00;61774.03;5076065;28;19927;-69
2021/04/18 02:50:53;;;;;;;;;;;;;;;-139.48;100.00;61774.03;5046823;28;19920;-69
2021/04/18 02:53:36;;;;;;;;;;;;;;;-139.48;100.00;61774.03;5061155;28;19957;-69
2021/04/18 02:56:20;;;;;;;;;;;;;;;-139.48;100.00;61774.03;5076003;28;19918;-69
2021/04/18 02:59:04;;;;;;;;;;;;;;;-139.48;100.00;61774.03;5075865;28;19934;-68
2021/04/18 03:01:48;;;;;;;;;;;;;;;-139.48;100.00;61774.03;5076170;28;19919;-68
2021/04/18 03:04:32;;;;;;;;;;;;;;;-139.48;100.00;61774.03;5060658;28;19962;-69
2021/04/18 03:07:16;;;;;;;;;;;;;;;-139.48;100.00;61774.03;5060488;28;19939;-68
2021/04/18 03:10:00;;;;;;;;;;;;;;;-139.48;100.00;61774.03;5060827;28;19919;-68
2021/04/18 03:12:44;;;;;;;;;;;;;;;-139.48;100.00;61774.03;5060507;28;19986;-68
2021/04/18 03:15:28;;;;;;;;;;;;;;;-139.48;100.00;61774.03;5060683;28;19923;-69
2021/04/18 03:18:12;;;;;;;;;;;;;;;-139.48;100.00;61774.03;5075027;28;19970;-69
2021/04/18 03:20:55;;;;;;;;;;;;;;;-139.48;100.00;61774.03;5076120;28;20057;-68
2021/04/18 03:23:39;;;;;;;;;;;;;;;-139.48;100.00;61774.03;5060312;28;20331;-70
2021/04/18 03:26:23;;;;;;;;;;;;;;;-139.48;100.00;61774.03;5075610;28;19924;-68
2021/04/18 03:29:07;;;;;;;;;;;;;;;-139.48;100.00;61774.03;5060214;28;20363;-69
2021/04/18 03:31:54;;;;;;;;;;;;;;;-139.48;100.00;61774.03;5075522;28;19950;-69
2021/04/18 03:34:38;;;;;;;;;;;;;;;-139.48;100.00;61774.03;5075161;28;19920;-68
2021/04/18 03:37:22;;;;;;;;;;;;;;;-139.48;100.00;61774.03;5046026;28;20388;-68
2021/04/18 03:40:06;;;;;;;;;;;;;;;-139.48;100.00;61774.03;5060258;28;19962;-68
2021/04/18 03:42:50;;;;;;;;;;;;;;;-139.48;100.00;61774.03;5060113;28;19978;-66
2021/04/18 03:45:34;;;;;;;;;;;;;;;-139.48;100.00;61774.03;5060068;28;19923;-69
2021/04/18 03:48:18;;;;;;;;;;;;;;;-139.48;100.00;61774.03;5074914;28;19965;-68
2021/04/18 03:51:02;;;;;;;;;;;;;;;-139.48;100.00;61774.03;5074834;28;19919;-69
2021/04/18 03:53:46;;;;;;;;;;;;;;;-139.48;100.00;61774.03;5045639;28;19974;-68
2021/04/18 03:56:29;;;;;;;;;;;;;;;-139.48;100.00;61774.03;5045456;28;19919;-68
2021/04/18 03:59:13;;;;;;;;;;;;;;;-139.48;100.00;61774.03;5045615;28;20302;-69
2021/04/18 04:01:57;;;;;;;;;;;;;;;-139.48;100.00;61774.03;5074952;28;19966;-68
2021/04/18 04:04:41;;;;;;;;;;;;;;;-139.48;100.00;61774.03;5059832;28;19918;-69
2021/04/18 04:07:25;;;;;;;;;;;;;;;-139.48;100.00;61774.03;5059311;28;19923;-69
2021/04/18 04:10:09;;;;;;;;;;;;;;;-139.48;100.00;61774.03;5059690;28;19957;-68
2021/04/18 04:12:53;;;;;;;;;;;;;;;-139.48;100.00;61774.03;5045185;28;20296;-69
2021/04/18 04:15:37;;;;;;;;;;;;;;;-139.48;100.00;61774.03;5074808;28;19958;-69
2021/04/18 04:18:21;;;;;;;;;;;;;;;-139.48;100.00;61774.03;5074231;28;19962;-68
2021/04/18 04:21:05;;;;;;;;;;;;;;;-139.48;100.00;61774.03;5074283;28;20320;-69
2021/04/18 04:23:48;;;;;;;;;;;;;;;-139.48;100.00;61774.03;5074212;28;19918;-68
2021/04/18 04:26:32;;;;;;;;;;;;;;;-139.48;100.00;61774.03;5059388;28;19922;-69
2021/04/18 04:29:16;;;;;;;;;;;;;;;-139.48;100.00;61774.03;5073670;28;20391;-69
2021/04/18 04:32:00;;;;;;;;;;;;;;;-139.48;100.00;61774.03;5074374;28;19919;-69
2021/04/18 04:34:44;;;;;;;;;;;;;;;-139.48;100.00;61774.03;5074067;28;19964;-68
2021/04/18 04:37:28;;;;;;;;;;;;;;;-139.48;100.00;61774.03;5073949;28;20019;-69
2021/04/18 04:40:12;;;;;;;;;;;;;;;-139.48;100.00;61774.03;5073938;28;19920;-69
2021/04/18 04:42:56;;;;;;;;;;;;;;;-139.48;100.00;61774.03;5058806;28;20289;-68
2021/04/18 04:45:40;;;;;;;;;;;;;;;-139.48;100.00;61774.03;5074131;28;20289;-67
2021/04/18 04:48:24;;;;;;;;;;;;;;;-139.48;100.00;61774.03;5044821;28;20285;-68
2021/04/18 04:51:08;;;;;;;;;;;;;;;-139.48;100.00;61774.03;5044843;28;19923;-69
2021/04/18 04:53:52;;;;;;;;;;;;;;;-139.48;100.00;61774.03;5058648;28;20312;-69
2021/04/18 04:56:36;;;;;;;;;;;;;;;-139.48;100.00;61774.03;5044687;28;20029;-69
2021/04/18 04:59:20;;;;;;;;;;;;;;;-139.48;100.00;61774.03;5073991;28;20269;-69
2021/04/18 05:02:04;;;;;;;;;;;;;;;-139.48;100.00;61774.03;5073980;28;19919;-68
2021/04/18 05:04:47;;;;;;;;;;;;;;;-139.48;100.00;61774.03;5044438;28;19922;-68
2021/04/18 05:07:31;;;;;;;;;;;;;;;-139.48;100.00;61774.03;5058634;28;20384;-70
2021/04/18 05:10:15;;;;;;;;;;;;;;;-139.48;100.00;61774.03;5058692;28;19920;-70
2021/04/18 05:12:59;;;;;;;;;;;;;;;-139.48;100.00;61774.03;5073867;28;19935;-70
2021/04/18 05:15:43;;;;;;;;;;;;;;;-139.48;100.00;61774.03;5058575;28;19962;-70
2021/04/18 05:18:27;;;;;;;;;;;;;;;-139.48;100.00;61774.03;5058126;28;19958;-70
2021/04/18 05:21:12;;;;;;;;;;;;;;;-139.48;100.00;61774.03;5058929;28;20024;-70
2021/04/18 05:23:55;;;;;;;;;;;;;;;-139.48;100.00;61774.03;5058546;28;19919;-70
2021/04/18 05:26:39;;;;;;;;;;;;;;;-139.48;100.00;61774.03;5073365;28;19947;-70
2021/04/18 05:29:23;;;;;;;;;;;;;;;-139.48;100.00;61774.03;5073440;28;20392;-70
2021/04/18 05:32:08;;;;;;;;;;;;;;;-139.48;100.00;61774.03;5073634;28;19970;-69
2021/04/18 05:34:51;;;;;;;;;;;;;;;-139.48;100.00;61774.03;5073682;28;20289;-69
2021/04/18 05:37:35;;;;;;;;;;;;;;;-139.48;100.00;61774.03;5058262;28;19935;-69
2021/04/18 05:40:20;;;;;;;;;;;;;;;-139.48;100.00;61774.03;5060492;28;20373;-70
2021/04/18 05:43:04;;;;;;;;;;;;;;;-139.48;100.00;61774.03;5062881;28;20015;-69
2021/04/18 05:45:48;;;;;;;;;;;;;;;-139.48;100.00;61774.03;5062157;28;19974;-70
2021/04/18 05:48:32;;;;;;;;;;;;;;;-139.48;100.00;61774.03;5061993;28;19919;-70
2021/04/18 05:51:16;;;;;;;;;;;;;;;-139.48;100.00;61774.03;5077206;28;19919;-68
2021/04/18 05:54:00;;;;;;;;;;;;;;;-139.48;100.00;61774.03;5048436;28;20285;-69
2021/04/18 05:56:44;;;;;;;;;;;;;;;-139.48;100.00;61774.03;5077290;28;19938;-69
2021/04/18 05:59:27;;;;;;;;;;;;;;;-139.48;100.00;61774.03;5062180;28;19923;-69
2021/04/18 06:02:12;;;;;;;;;;;;;;;-139.48;100.00;61774.03;5062383;28;19967;-69
2021/04/18 06:04:55;;;;;;;;;;;;;;;-139.48;100.00;61774.03;5062243;28;19919;-70
2021/04/18 06:07:39;;;;;;;;;;;;;;;-139.48;100.00;61774.03;5047532;28;20380;-69
2021/04/18 06:10:23;;;;;;;;;;;;;;;-139.48;100.00;61774.03;5061925;28;20384;-69
2021/04/18 06:13:07;;;;;;;;;;;;;;;-139.48;100.00;61774.03;5077041;28;19960;-69
2021/04/18 06:15:51;;;;;;;;;;;;;;;-139.48;100.00;61774.03;5061751;28;19919;-69
2021/04/18 06:18:35;;;;;;;;;;;;;;;-139.48;100.00;61774.03;5076452;28;19923;-69
2021/04/18 06:21:19;;;;;;;;;;;;;;;-139.48;100.00;61774.03;5061761;28;19920;-69
2021/04/18 06:24:03;;;;;;;;;;;;;;;-139.48;100.00;61774.03;5061455;28;19965;-69
2021/04/18 06:26:46;;;;;;;;;;;;;;;-139.48;100.00;61774.03;5076617;28;19942;-69
2021/04/18 06:29:30;;;;;;;;;;;;;;;-139.48;100.00;61774.03;5083262;22;19928;-68
2021/04/18 06:32:14;;;;;;;;;;;;;;;-139.48;100.00;61774.03;5036418;28;19943;-65
2021/04/18 06:34:58;;;;;;;;;;;;;;;-139.48;100.00;61774.03;5036956;28;19924;-66
2021/04/18 06:37:42;;;;;;;;;;;;;;;-139.48;100.00;61774.03;5035644;28;20489;-66
2021/04/18 06:40:26;;;;;;;;;;;;;;;-139.48;100.00;61774.03;5036586;28;19924;-65
2021/04/18 06:43:11;;;;;;;;;;;;;;;-139.48;100.00;61774.03;5021473;28;19920;-65
2021/04/18 06:45:54;;;;;;;;;;;;;;;-139.48;100.00;61774.03;5036106;28;19940;-65
2021/04/18 06:48:38;;;;;;;;;;;;;;;-139.48;100.00;61774.03;5021475;28;19923;-64
2021/04/18 06:51:22;;;;;;;;;;;;;;;-139.48;100.00;61774.03;5020201;28;19920;-67
2021/04/18 06:54:06;;;;;;;;;;;;;;;-139.48;100.00;61774.03;5021032;28;19920;-67
2021/04/18 06:56:50;;;;;;;;;;;;;;;-139.48;100.00;61774.03;5036069;28;19967;-67
2021/04/18 06:59:37;;;;;;;;;;;;;;;-139.48;100.00;61774.03;5021062;28;19994;-66
2021/04/18 07:02:23;;;;;;;;;;;;;;;-139.48;100.00;61774.03;5021174;28;19967;-67
2021/04/18 07:05:11;;;;;;;;;;;;;;;-139.48;100.00;61774.03;5035760;28;19920;-67
2021/04/18 07:07:55;;;;;;;;;;;;;;;-139.48;100.00;61774.03;5036029;28;19919;-68
2021/04/18 07:10:39;;;;;;;;;;;;;;;-139.48;100.00;61774.03;5020636;28;19935;-68
2021/04/18 07:13:23;;;;;;;;;;;;;;;-139.48;100.00;61774.03;5020701;28;19920;-67
2021/04/18 07:16:39;;;;;;;;;;;;;;;-139.48;100.00;61774.03;5020599;28;19967;-65
2021/04/18 07:19:25;;;;;;;;;;;;;;;-139.48;100.00;61774.03;5009865;28;19920;-66
2021/04/18 07:22:10;;;;;;;;;;;;;;;-139.48;100.00;61774.03;5020513;28;19920;-67
2021/04/18 07:24:54;;;;;;;;;;;;;;;-139.48;100.00;61774.03;5020560;28;19928;-67
2021/04/18 07:27:42;;;;;;;;;;;;;;;-139.48;100.00;61774.03;5006506;28;20050;-67
2021/04/18 07:30:26;;;;;;;;;;;;;;;-139.48;100.00;61774.03;5035472;28;20274;-67
2021/04/18 07:33:10;;;;;;;;;;;;;;;-139.48;100.00;61774.03;5020325;28;19936;-67
2021/04/18 07:35:54;;;;;;;;;;;;;;;-139.48;100.00;61774.03;5035575;28;20050;-67
2021/04/18 07:38:38;;;;;;;;;;;;;;;-139.48;100.00;61774.03;5006366;28;19924;-67
2021/04/18 07:41:23;;;;;;;;;;;;;;;-139.48;100.00;61774.03;5035125;28;19920;-66
2021/04/18 07:44:08;;;;;;;;;;;;;;;-139.48;100.00;61774.03;5020392;28;20389;-66
2021/04/18 07:46:53;;;;;;;;;;;;;;;-139.48;100.00;61774.03;5020395;28;20381;-67
2021/04/18 07:49:37;;;;;;;;;;;;;;;-139.48;100.00;61774.03;5019486;28;19962;-66
2021/04/18 07:52:22;;;;;;;;;;;;;;;-139.48;100.00;61774.03;5019266;28;19967;-66
2021/04/18 07:55:06;;;;;;;;;;;;;;;-139.48;100.00;61774.03;5019523;28;19920;-67
2021/04/18 07:57:50;;;;;;;;;;;;;;;-139.48;100.00;61774.03;5019455;28;20396;-67
2021/04/18 08:00:34;;;;;;;;;;;;;;;-139.48;100.00;61774.03;5034667;28;20408;-67
2021/04/18 08:03:18;;;;;;;;;;;;;;;-139.48;100.00;61774.03;5019343;28;19940;-67
2021/04/18 08:06:03;;;;;;;;;;;;;;;-139.48;100.00;61774.03;5019374;28;19939;-67
2021/04/18 08:08:49;;;;;;;;;;;;;;;-139.48;100.00;61774.03;5034104;28;19959;-67
2021/04/18 08:11:32;;;;;;;;;;;;;;;-139.48;100.00;61774.03;5019006;28;19963;-67
2021/04/18 08:14:17;;;;;;;;;;;;;;;-139.48;100.00;61774.03;5034352;28;19935;-67
2021/04/18 08:17:06;;;;;;;;;;;;;;;-139.48;100.00;61774.03;5019194;28;20020;-65
2021/04/18 08:19:56;;;;;;;;;;;;;;;-139.48;100.00;61774.03;5034156;28;19936;-67
2021/04/18 08:22:56;;;;;;;;;;;;;;;-139.48;100.00;61774.03;5005065;28;19920;-67
2021/04/18 08:25:58;;;;;;;;;;;;;;;-139.48;100.00;61774.03;5033912;28;19924;-67
2021/04/18 08:28:54;;;;;;;;;;;;;;;-139.48;100.00;61774.03;5019151;28;20119;-67
2021/04/18 08:31:55;;;;;;;;;;;;;;;-139.48;100.00;61774.03;5033837;28;19924;-67
2021/04/18 08:34:43;;;;;;;;;;;;;;;-139.48;100.00;61774.03;5033644;28;19962;-67
2021/04/18 08:37:27;;;;;;;;;;;;;;;-139.48;100.00;61774.03;5018956;28;20289;-66
2021/04/18 08:40:11;;;;;;;;;;;;;;;-139.48;100.00;61774.03;5033544;28;19919;-66
2021/04/18 08:43:08;;;;;;;;;;;;;;;-139.48;100.00;61774.03;5005249;28;20318;-67
2021/04/18 08:45:52;;;;;;;;;;;;;;;-139.48;100.00;61774.03;5004724;28;19928;-65
2021/04/18 08:48:36;;;;;;;;;;;;;;;-139.48;100.00;61774.03;5018333;28;20004;-67
2021/04/18 08:51:20;;;;;;;;;;;;;;;-139.48;100.00;61774.03;5033562;28;19920;-66
2021/04/18 08:54:04;;;;;;;;;;;;;;;-139.48;100.00;61774.03;5033779;28;19959;-67
2021/04/18 08:56:49;;;;;;;;;;;;;;;-139.48;100.00;61774.03;5018236;28;20019;-67
2021/04/18 08:59:33;;;;;;;;;;;;;;;-139.48;100.00;61774.03;5033349;28;20412;-66
2021/04/18 09:02:17;;;;;;;;;;;;;;;-139.48;100.00;61774.03;5018794;28;20011;-67
2021/04/18 09:05:02;;;;;;;;;;;;;;;-139.48;100.00;61774.03;5018165;28;19959;-67
2021/04/18 09:07:46;;;;;;;;;;;;;;;-139.48;100.00;61774.03;5018355;28;20356;-67
2021/04/18 09:10:30;;;;;;;;;;;;;;;-139.48;100.00;61774.03;5018200;28;19920;-67
2021/04/18 09:13:17;;;;;;;;;;;;;;;-139.48;100.00;61774.03;5018493;28;19920;-67
2021/04/18 09:16:01;;;;;;;;;;;;;;;-139.48;100.00;61774.03;5032890;28;19932;-66
2021/04/18 09:18:45;;;;;;;;;;;;;;;-139.48;100.00;61774.03;5017983;28;19927;-66
2021/04/18 09:21:29;;;;;;;;;;;;;;;-139.48;100.00;61774.03;5033106;28;19983;-67
2021/04/18 09:24:13;;;;;;;;;;;;;;;-139.48;100.00;61774.03;5036131;28;19959;-69
2021/04/18 09:26:59;;;;;;;;;;;;;;;-139.48;100.00;61774.03;5033206;28;20044;-68
2021/04/18 09:29:48;;;;;;;;;;;;;;;-139.48;100.00;61774.03;5017724;28;20281;-68
2021/04/18 09:32:32;;;;;;;;;;;;;;;-139.48;100.00;61774.03;5033212;28;19924;-68
2021/04/18 09:35:17;;;;;;;;;;;;;;;-139.48;100.00;61774.03;5018160;28;19920;-67
2021/04/18 09:38:02;;;;;;;;;;;;;;;-139.48;100.00;61774.03;5033096;28;19983;-68
2021/04/18 09:40:46;;;;;;;;;;;;;;;-139.48;100.00;61774.03;5017781;28;20332;-68
2021/04/18 09:43:30;;;;;;;;;;;;;;;-139.48;100.00;61774.03;5017842;28;19920;-69
2021/04/18 09:46:14;;;;;;;;;;;;;;;-139.48;100.00;61774.03;5032928;28;20431;-68
2021/04/18 09:49:01;;;;;;;;;;;;;;;-139.48;100.00;61774.03;5018214;28;19923;-68
2021/04/18 09:51:58;;;;;;;;;;;;;;;-139.48;100.00;61774.03;5032868;28;20031;-68
2021/04/18 09:54:43;;;;;;;;;;;;;;;-139.48;100.00;61774.03;5018062;28;19920;-68
2021/04/18 09:57:29;;;;;;;;;;;;;;;-139.48;100.00;61774.03;5017724;28;19923;-68
2021/04/18 10:00:18;;;;;;;;;;;;;;;-139.48;100.00;61774.03;5032567;28;20031;-69
2021/04/18 10:03:14;;;;;;;;;;;;;;;-139.48;100.00;61774.03;5032627;28;19944;-67
2021/04/18 10:05:58;;;;;;;;;;;;;;;-139.48;100.00;61774.03;5017516;28;19924;-68
2021/04/18 10:08:51;;;;;;;;;;;;;;;-139.48;100.00;61774.03;5033100;28;20223;-69
2021/04/18 10:11:35;;;;;;;;;;;;;;;-139.48;100.00;61774.03;5017570;28;20502;-68
2021/04/18 10:14:19;;;;;;;;;;;;;;;-139.48;100.00;61774.03;5017797;28;19963;-69
2021/04/18 10:17:03;;;;;;;;;;;;;;;-139.48;100.00;61774.03;5017439;28;19920;-69
2021/04/18 10:19:50;;;;;;;;;;;;;;;-139.48;100.00;61774.03;5003884;28;19920;-68
2021/04/18 10:22:34;;;;;;;;;;;;;;;-139.48;100.00;61774.03;5032669;28;19920;-69
2021/04/18 10:25:18;;;;;;;;;;;;;;;-139.48;100.00;61774.03;5032426;28;19925;-68
2021/04/18 10:28:02;;;;;;;;;;;;;;;-139.48;100.00;61774.03;5035305;28;19920;-69
2021/04/18 10:30:47;;;;;;;;;;;;;;;-139.48;100.00;61774.03;5021163;28;19927;-69
2021/04/18 10:33:31;;;;;;;;;;;;;;;-139.48;100.00;61774.03;5007396;28;19959;-68
2021/04/18 10:36:18;;;;;;;;;;;;;;;-139.48;100.00;61774.03;5036055;28;19940;-69
2021/04/18 10:39:03;;;;;;;;;;;;;;;-139.48;100.00;61774.03;5021593;28;19963;-68
2021/04/18 10:41:47;;;;;;;;;;;;;;;-139.48;100.00;61774.03;5036025;28;19967;-69
2021/04/18 10:44:31;;;;;;;;;;;;;;;-139.48;100.00;61774.03;5021160;28;19919;-69
2021/04/18 10:47:18;;;;;;;;;;;;;;;-139.48;100.00;61774.03;5035522;28;20396;-69
2021/04/18 10:50:03;;;;;;;;;;;;;;;-139.48;100.00;61774.03;5035588;28;19977;-69
2021/04/18 10:52:47;;;;;;;;;;;;;;;-139.48;100.00;61774.03;5021259;28;19985;-69
2021/04/18 10:55:31;;;;;;;;;;;;;;;-139.48;100.00;61774.03;5035550;28;20000;-69
2021/04/18 10:58:16;;;;;;;;;;;;;;;-139.48;100.00;61774.03;5020652;28;19959;-69
2021/04/18 11:01:00;;;;;;;;;;;;;;;-139.48;100.00;61774.03;5035486;28;19919;-68
2021/04/18 11:03:44;;;;;;;;;;;;;;;-139.48;100.00;61774.03;5035296;28;20012;-67
2021/04/18 11:06:28;;;;;;;;;;;;;;;-139.48;100.00;61774.03;5035231;28;19970;-68
2021/04/18 11:09:12;;;;;;;;;;;;;;;-139.48;100.00;61774.03;5035263;28;20369;-69
2021/04/18 11:11:56;;;;;;;;;;;;;;;-139.48;100.00;61774.03;5035718;28;20365;-69
2021/04/18 11:14:40;;;;;;;;;;;;;;;-139.48;100.00;61774.03;5006479;28;20424;-69
2021/04/18 11:17:23;;;;;;;;;;;;;;;-139.48;100.00;61774.03;5020173;28;19920;-68
2021/04/18 11:20:09;;;;;;;;;;;;;;;-139.48;100.00;61774.03;5035088;28;20007;-67
2021/04/18 11:22:52;;;;;;;;;;;;;;;-139.48;100.00;61774.03;5034845;28;20385;-68
2021/04/18 11:25:37;;;;;;;;;;;;;;;-139.48;100.00;61774.03;5020217;28;19924;-68
2021/04/18 11:28:20;;;;;;;;;;;;;;;-139.48;100.00;61774.03;5005923;28;20262;-68
2021/04/18 11:31:04;;;;;;;;;;;;;;;-139.48;100.00;61774.03;5006262;28;19963;-69
2021/04/18 11:33:48;;;;;;;;;;;;;;;-139.48;100.00;61774.03;5019825;28;19940;-67
2021/04/18 11:36:32;;;;;;;;;;;;;;;-139.48;100.00;61774.03;5035211;28;20088;-68
2021/04/18 11:39:16;;;;;;;;;;;;;;;-139.48;100.00;61774.03;5034569;28;20293;-68
2021/04/18 11:42:00;;;;;;;;;;;;;;;-139.48;100.00;61774.03;5005568;28;19967;-68
2021/04/18 11:44:44;;;;;;;;;;;;;;;-139.48;100.00;61774.03;5034492;28;19963;-68
2021/04/18 11:47:28;;;;;;;;;;;;;;;-139.48;100.00;61774.03;5019390;28;20301;-69
2021/04/18 11:50:13;;;;;;;;;;;;;;;-139.48;100.00;61774.03;5019250;28;20041;-68
2021/04/18 11:52:56;;;;;;;;;;;;;;;-139.48;100.00;61774.03;5034625;28;20010;-68
2021/04/18 11:55:40;;;;;;;;;;;;;;;-139.48;100.00;61774.03;5034262;28;19962;-69
2021/04/18 11:58:24;;;;;;;;;;;;;;;-139.48;100.00;61774.03;5019480;28;19920;-67
2021/04/18 12:01:08;;;;;;;;;;;;;;;-139.48;100.00;61774.03;5005549;28;19924;-68
2021/04/18 12:03:52;;;;;;;;;;;;;;;-139.48;100.00;61774.03;5034159;28;19919;-68
2021/04/18 12:06:36;;;;;;;;;;;;;;;-139.48;100.00;61774.03;5019224;28;20286;-69
2021/04/18 12:09:20;;;;;;;;;;;;;;;-139.48;100.00;61774.03;5019211;28;19956;-69
2021/04/18 12:12:04;;;;;;;;;;;;;;;-139.48;100.00;61774.03;5033977;28;20347;-68
2021/04/18 12:14:50;;;;;;;;;;;;;;;-139.48;100.00;61774.03;5034066;28;20023;-68
2021/04/18 12:17:35;;;;;;;;;;;;;;;-139.48;100.00;61774.03;5019399;28;20027;-68
2021/04/18 12:20:19;;;;;;;;;;;;;;;-139.48;100.00;61774.03;5034033;28;19983;-68
2021/04/18 12:23:03;;;;;;;;;;;;;;;-139.48;100.00;61774.03;5018706;28;20051;-68
2021/04/18 12:25:47;;;;;;;;;;;;;;;-139.48;100.00;61774.03;5018529;28;19924;-68
2021/04/18 12:28:31;;;;;;;;;;;;;;;-139.48;100.00;61774.03;5018766;28;20000;-68
2021/04/18 12:31:17;;;;;;;;;;;;;;;-139.48;100.00;61774.03;5033379;28;19963;-68
2021/04/18 12:34:01;;;;;;;;;;;;;;;-139.48;100.00;61774.03;5018787;28;20286;-68
2021/04/18 12:36:45;;;;;;;;;;;;;;;-139.48;100.00;61774.03;5020135;28;19920;-67
2021/04/18 12:39:29;;;;;;;;;;;;;;;-139.48;100.00;61774.03;5005956;28;19963;-68
2021/04/18 12:42:13;;;;;;;;;;;;;;;-139.48;100.00;61774.03;5033680;28;19920;-68
2021/04/18 12:44:57;;;;;;;;;;;;;;;-139.48;100.00;61774.03;5033718;28;19935;-68
2021/04/18 12:47:41;;;;;;;;;;;;;;;-139.48;100.00;61774.03;5018578;28;19986;-67
2021/04/18 12:50:25;;;;;;;;;;;;;;;-139.48;100.00;61774.03;5017747;28;19943;-68
2021/04/18 12:53:09;;;;;;;;;;;;;;;-139.48;100.00;61774.03;5018212;28;19966;-68
2021/04/18 12:55:52;;;;;;;;;;;;;;;-139.48;100.00;61774.03;5033602;28;20289;-68
2021/04/18 12:58:36;;;;;;;;;;;;;;;-139.48;100.00;61774.03;5033519;28;20438;-68
2021/04/18 13:01:21;;;;;;;;;;;;;;;-139.48;100.00;61774.03;5033297;28;20336;-69
2021/04/18 13:04:05;;;;;;;;;;;;;;;-139.48;100.00;61774.03;5018249;28;19979;-68
2021/04/18 13:06:49;;;;;;;;;;;;;;;-139.48;100.00;61774.03;5033110;28;19928;-68
2021/04/18 13:09:33;;;;;;;;;;;;;;;-139.48;100.00;61774.03;5018255;28;19920;-68
2021/04/18 13:12:17;;;;;;;;;;;;;;;-139.48;100.00;61774.03;5033005;28;19959;-68
2021/04/18 13:15:01;;;;;;;;;;;;;;;-139.48;100.00;61774.03;5033523;28;19935;-68
2021/04/18 13:17:45;;;;;;;;;;;;;;;-139.48;100.00;61774.03;5018194;28;19920;-68
2021/04/18 13:20:29;;;;;;;;;;;;;;;-139.48;100.00;61774.03;5032918;28;19927;-68
2021/04/18 13:23:13;;;;;;;;;;;;;;;-139.48;100.00;61774.03;5018422;28;19920;-68
2021/04/18 13:25:57;;;;;;;;;;;;;;;-139.48;100.00;61774.03;5017781;28;19978;-68
2021/04/18 13:28:41;;;;;;;;;;;;;;;-139.48;100.00;61774.03;5003924;28;19920;-67
2021/04/18 13:31:25;;;;;;;;;;;;;;;-139.48;100.00;61774.03;5017675;28;19920;-68
2021/04/18 13:34:09;;;;;;;;;;;;;;;-139.48;100.00;61774.03;5032778;28;19940;-67
2021/04/18 13:36:53;;;;;;;;;;;;;;;-139.48;100.00;61774.03;5018137;28;19920;-68
2021/04/18 13:39:37;;;;;;;;;;;;;;;-139.48;100.00;61774.03;5017911;28;20016;-68
2021/04/18 13:42:21;;;;;;;;;;;;;;;-139.48;100.00;61774.03;5032749;28;20008;-68
2021/04/18 13:45:05;;;;;;;;;;;;;;;-139.48;100.00;61774.03;5032903;28;19920;-68